Terminal Aerodrome Forecast
Issued by NWS

Home | Current Version | Previous Version | Text Only | Print | Product List | Glossary On
Versions: 1 2 3 4 5 6 7 8 9 10 11 12 13 14 15 16
000
FTUS45 KCYS 261120
TAFLAR
TAF
KLAR 261120Z 2612/2712 20008KT P6SM BKN080
     FM261800 29012G23KT P6SM VCTS BKN060CB
     FM270100 18012KT P6SM BKN080
     FM270600 21008KT P6SM BKN080=

USA.gov is the U.S. government's official web portal to all federal, state and local government web resources and services.